Time;durP1;ratioP1;P1;durP2;ratioP2;P2;SDS_P1;SDS_P2;PMS_P1;PMS_P2;Temp;Humidity;BMP_temperature;BMP_pressure;BME280_temperature;BME280_humidity;BME280_pressure;Samples;Min_cycle;Max_cycle;Signal;HPM_P1;HPM_P2
2021/06/14 00:03:17;;;;;;;10.03;4.20;;;;;;;17.26;54.86;102401.53;6129067;28;20219;-53
2021/06/14 00:06:38;;;;;;;5.47;3.97;;;;;;;17.37;54.36;102395.28;6130886;28;20239;-49
2021/06/14 00:09:58;;;;;;;5.17;4.67;;;;;;;17.21;54.99;102386.69;6135381;28;20606;-54
2021/06/14 00:13:22;;;;;;;7.20;5.55;;;;;;;17.16;55.03;102383.22;6132023;28;20276;-55
2021/06/14 00:16:43;;;;;;;4.10;3.77;;;;;;;17.05;55.31;102384.25;6134806;28;20231;-54
2021/06/14 00:20:07;;;;;;;5.77;4.50;;;;;;;17.10;55.30;102386.84;6131647;28;20518;-55
2021/06/14 00:23:30;;;;;;;5.10;4.60;;;;;;;16.99;55.65;102389.56;6124712;28;20239;-51
2021/06/14 00:26:51;;;;;;;7.03;4.23;;;;;;;16.95;55.69;102377.34;6131491;28;20235;-54
2021/06/14 00:30:21;;;;;;;5.40;4.03;;;;;;;17.01;55.37;102387.78;6131448;28;20242;-55
2021/06/14 00:33:42;;;;;;;5.67;3.73;;;;;;;17.03;55.15;102380.75;6132632;28;20239;-54
2021/06/14 00:37:03;;;;;;;4.90;4.37;;;;;;;17.00;55.61;102375.53;6130069;28;20235;-52
2021/06/14 00:40:24;;;;;;;6.10;4.50;;;;;;;16.85;55.80;102380.97;6128081;28;20230;-55
2021/06/14 00:43:46;;;;;;;7.00;4.70;;;;;;;16.67;56.41;102371.44;6137023;28;20223;-54
2021/06/14 00:47:09;;;;;;;6.30;4.50;;;;;;;16.79;56.14;102375.72;6124294;28;20228;-55
2021/06/14 00:50:37;;;;;;;9.53;4.80;;;;;;;16.72;56.42;102367.88;6134250;28;20558;-55
2021/06/14 00:54:00;;;;;;;8.57;5.13;;;;;;;16.49;57.26;102364.63;6129640;28;20238;-48
2021/06/14 00:57:24;;;;;;;9.17;4.63;;;;;;;16.45;57.54;102370.78;6138185;28;20284;-53
2021/06/14 01:00:46;;;;;;;5.80;4.63;;;;;;;16.41;57.96;102374.34;6135674;28;20230;-54
2021/06/14 01:04:10;;;;;;;6.70;4.57;;;;;;;16.79;56.45;102373.06;6126866;28;20246;-52
2021/06/14 01:07:31;;;;;;;6.33;4.33;;;;;;;16.69;57.17;102370.56;6131700;28;20230;-51
2021/06/14 01:10:54;;;;;;;8.07;6.27;;;;;;;16.11;59.57;102379.81;6131322;28;20259;-51
2021/06/14 01:14:24;;;;;;;7.53;5.17;;;;;;;16.27;59.00;102374.44;6141461;28;20239;-53
2021/06/14 01:17:50;;;;;;;6.47;5.07;;;;;;;16.33;59.08;102372.63;6129473;28;20234;-49
2021/06/14 01:21:20;;;;;;;6.43;4.60;;;;;;;16.52;58.89;102367.22;6135571;28;21101;-55
2021/06/14 01:24:56;;;;;;;6.20;4.87;;;;;;;16.66;58.33;102364.47;6139703;28;20230;-55
2021/06/14 01:28:23;;;;;;;7.53;5.40;;;;;;;16.60;58.54;102360.13;6139551;28;20240;-54
2021/06/14 01:31:48;;;;;;;6.57;5.20;;;;;;;16.51;58.72;102354.94;6138603;28;20231;-55
2021/06/14 01:35:12;;;;;;;6.70;4.80;;;;;;;16.60;58.09;102349.59;6136251;28;20239;-50
2021/06/14 01:38:34;;;;;;;5.43;4.90;;;;;;;16.33;59.20;102341.09;6132887;28;20267;-55
2021/06/14 01:41:58;;;;;;;6.30;4.87;;;;;;;16.55;58.46;102343.50;6138292;28;20223;-53
2021/06/14 01:45:24;;;;;;;5.80;4.47;;;;;;;16.58;58.47;102337.38;6141533;28;20234;-52
2021/06/14 01:48:46;;;;;;;5.40;4.23;;;;;;;16.27;59.35;102335.88;6127408;28;20362;-54
2021/06/14 01:52:11;;;;;;;6.03;4.20;;;;;;;16.14;59.94;102336.88;6131433;28;20242;-55
2021/06/14 01:55:34;;;;;;;5.93;4.63;;;;;;;16.18;60.04;102330.69;6129987;28;20276;-55
2021/06/14 01:59:02;;;;;;;6.53;4.97;;;;;;;16.34;59.26;102324.44;6143194;28;20234;-53
2021/06/14 02:02:28;;;;;;;6.40;5.17;;;;;;;16.29;59.80;102318.34;6126194;28;20232;-53
2021/06/14 02:05:53;;;;;;;7.63;5.67;;;;;;;15.90;60.95;102316.94;6129007;28;20457;-50
2021/06/14 02:09:19;;;;;;;6.97;4.40;;;;;;;16.09;60.43;102325.50;6141497;28;20246;-52
2021/06/14 02:12:43;;;;;;;7.63;5.40;;;;;;;15.92;60.93;102318.66;6147042;28;20589;-55
2021/06/14 02:16:05;;;;;;;8.80;5.57;;;;;;;15.87;61.02;102317.78;6132248;28;20322;-51
2021/06/14 02:19:27;;;;;;;6.10;5.00;;;;;;;15.85;61.26;102316.94;6135518;28;20231;-54
2021/06/14 02:22:49;;;;;;;6.00;5.40;;;;;;;15.70;61.74;102310.03;6122103;28;20224;-55
2021/06/14 02:26:11;;;;;;;6.17;5.57;;;;;;;15.79;61.71;102303.00;6128595;28;20235;-53
2021/06/14 02:29:33;;;;;;;6.20;5.60;;;;;;;15.74;61.77;102298.66;6133938;28;20259;-53
2021/06/14 02:32:55;;;;;;;8.87;5.53;;;;;;;15.69;61.95;102291.66;6147576;28;20345;-51
2021/06/14 02:36:19;;;;;;;6.20;5.57;;;;;;;15.59;62.43;102303.97;6134835;28;20239;-52
2021/06/14 02:39:44;;;;;;;6.20;4.90;;;;;;;15.49;62.83;102297.91;6133981;28;20235;-53
2021/06/14 02:43:09;;;;;;;5.93;4.63;;;;;;;15.71;62.06;102300.38;6148197;28;20242;-51
2021/06/14 02:46:31;;;;;;;7.80;4.33;;;;;;;15.86;61.68;102291.56;6132896;28;20808;-54
2021/06/14 02:49:52;;;;;;;5.73;4.60;;;;;;;15.79;62.26;102288.09;6134772;28;20219;-52
2021/06/14 02:53:16;;;;;;;6.37;4.83;;;;;;;15.53;62.52;102291.75;6135347;28;20628;-54
2021/06/14 02:56:40;;;;;;;6.27;4.67;;;;;;;15.91;61.57;102288.00;6134294;28;20219;-54
2021/06/14 03:00:02;;;;;;;12.03;9.90;;;;;;;15.71;62.00;102293.38;6129540;28;20680;-53
2021/06/14 03:03:29;;;;;;;20.53;18.47;;;;;;;15.81;61.99;102288.09;6132309;28;20239;-53
2021/06/14 03:06:53;;;;;;;11.27;9.60;;;;;;;15.80;61.50;102292.47;6130076;28;20385;-54
2021/06/14 03:10:19;;;;;;;9.17;8.17;;;;;;;15.58;62.09;102296.09;6132720;28;20249;-55
2021/06/14 03:13:44;;;;;;;6.73;4.97;;;;;;;15.63;61.74;102300.44;6120018;28;20239;-53
2021/06/14 03:17:07;;;;;;;7.07;4.60;;;;;;;15.43;62.38;102300.56;6148781;28;20310;-54
2021/06/14 03:20:31;;;;;;;6.73;4.93;;;;;;;15.67;61.55;102285.53;6132322;28;20326;-54
2021/06/14 03:23:53;;;;;;;9.47;6.23;;;;;;;15.46;62.12;102286.53;6139788;28;20231;-50
2021/06/14 03:27:18;;;;;;;9.33;4.93;;;;;;;15.68;61.31;102290.78;6136892;28;20243;-52
2021/06/14 03:30:41;;;;;;;9.47;5.27;;;;;;;15.70;61.23;102296.00;6138394;28;20578;-54
2021/06/14 03:34:02;;;;;;;7.50;5.03;;;;;;;15.84;60.77;102286.31;6132737;28;20512;-53
2021/06/14 03:37:23;;;;;;;6.90;5.87;;;;;;;15.93;60.62;102278.34;6132152;28;20235;-54
2021/06/14 03:40:44;;;;;;;6.83;5.87;;;;;;;15.51;62.18;102275.13;6137734;28;20230;-51
2021/06/14 03:44:07;;;;;;;5.87;4.83;;;;;;;15.14;63.12;102275.34;6133390;28;20239;-55
2021/06/14 03:47:27;;;;;;;5.37;4.87;;;;;;;15.31;62.67;102280.47;6136598;28;20310;-51
2021/06/14 03:50:53;;;;;;;7.27;5.40;;;;;;;14.94;63.88;102271.94;6136663;28;20231;-55
2021/06/14 03:54:14;;;;;;;6.93;5.13;;;;;;;15.40;62.78;102265.59;6126171;28;20321;-54
2021/06/14 03:57:35;;;;;;;7.20;4.73;;;;;;;15.54;62.23;102266.34;6137847;28;20227;-56
2021/06/14 04:00:59;;;;;;;9.33;6.20;;;;;;;15.73;61.65;102257.50;6133440;28;20231;-56
2021/06/14 04:04:40;;;;;;;7.57;4.77;;;;;;;15.94;61.22;102256.44;6130434;28;20543;-53
2021/06/14 04:08:12;;;;;;;6.93;6.23;;;;;;;15.47;62.58;102256.75;6142341;28;20239;-54
2021/06/14 04:11:33;;;;;;;8.87;5.90;;;;;;;15.87;61.02;102252.13;6129591;28;20586;-53
2021/06/14 04:14:54;;;;;;;7.90;4.77;;;;;;;15.99;60.48;102250.28;6132852;28;20247;-53
2021/06/14 04:18:16;;;;;;;8.27;5.53;;;;;;;15.86;60.76;102263.53;6136049;28;21021;-55
2021/06/14 04:21:37;;;;;;;7.50;5.43;;;;;;;16.19;59.20;102261.50;6129985;28;20242;-53
2021/06/14 04:24:58;;;;;;;11.70;8.23;;;;;;;16.23;59.65;102262.34;6129089;28;20246;-50
2021/06/14 04:28:19;;;;;;;7.17;6.17;;;;;;;16.16;59.42;102261.50;6122774;28;20566;-55
2021/06/14 04:31:40;;;;;;;10.83;7.30;;;;;;;16.27;58.81;102266.69;6128481;28;20235;-55
2021/06/14 04:35:02;;;;;;;8.57;6.00;;;;;;;16.40;58.67;102272.66;6131498;28;20239;-54
2021/06/14 04:38:23;;;;;;;6.77;6.10;;;;;;;16.50;58.28;102280.47;6130199;28;20288;-53
2021/06/14 04:41:44;;;;;;;5.80;4.50;;;;;;;16.42;58.49;102276.16;6130675;28;20243;-56
2021/06/14 04:45:06;;;;;;;9.00;5.63;;;;;;;16.52;58.06;102283.06;6132188;28;20535;-51
2021/06/14 04:48:27;;;;;;;5.90;4.43;;;;;;;16.58;58.14;102287.41;6130514;28;20232;-54
2021/06/14 04:51:49;;;;;;;6.20;5.60;;;;;;;16.91;56.79;102288.81;6127760;28;20604;-54
2021/06/14 04:55:11;;;;;;;7.57;4.77;;;;;;;17.16;55.99;102285.84;6131204;28;20593;-50
2021/06/14 04:58:31;;;;;;;8.83;4.93;;;;;;;17.45;55.41;102302.13;6138214;28;20239;-52
2021/06/14 05:01:53;;;;;;;5.80;4.77;;;;;;;17.07;55.18;102284.22;6132455;28;20235;-50
2021/06/14 05:05:14;;;;;;;7.43;5.93;;;;;;;17.28;55.07;102285.69;6119770;28;20262;-50
2021/06/14 05:08:36;;;;;;;5.27;4.77;;;;;;;17.05;55.31;102283.38;6132022;28;20243;-53
2021/06/14 05:11:57;;;;;;;9.67;7.27;;;;;;;17.31;55.06;102283.00;6128403;28;20235;-55
2021/06/14 05:15:18;;;;;;;10.93;5.67;;;;;;;17.41;54.93;102282.00;6131816;28;20612;-53
2021/06/14 05:18:39;;;;;;;8.37;5.30;;;;;;;17.79;54.00;102272.63;6135834;28;20231;-50
2021/06/14 05:22:01;;;;;;;6.43;5.37;;;;;;;17.90;53.41;102273.34;6132247;28;20239;-49
2021/06/14 05:25:23;;;;;;;10.23;5.03;;;;;;;18.07;52.80;102277.50;6131770;28;20231;-51
2021/06/14 05:28:45;;;;;;;6.53;4.40;;;;;;;17.86;53.20;102274.31;6132728;28;20235;-51
2021/06/14 05:32:07;;;;;;;7.00;4.97;;;;;;;17.50;53.88;102266.03;6131544;28;20235;-53
2021/06/14 05:35:28;;;;;;;6.00;4.30;;;;;;;17.93;52.86;102266.28;6127345;28;20251;-51
2021/06/14 05:38:49;;;;;;;7.55;5.05;;;;;;;18.12;51.90;102270.34;6125610;28;20235;-51
2021/06/14 05:42:11;;;;;;;8.18;5.03;;;;;;;18.70;50.94;102266.63;6124668;28;20230;-54
2021/06/14 05:45:32;;;;;;;10.20;5.47;;;;;;;18.15;52.41;102257.13;6115539;28;20797;-57
2021/06/14 05:48:53;;;;;;;5.40;3.92;;;;;;;17.99;52.26;102253.91;6125113;28;20234;-57
2021/06/14 05:52:14;;;;;;;8.73;5.05;;;;;;;18.56;51.75;102249.34;6129047;28;20239;-56
2021/06/14 05:55:36;;;;;;;10.23;4.83;;;;;;;18.12;51.97;102254.53;6124488;28;20243;-56
2021/06/14 05:58:58;;;;;;;6.72;4.43;;;;;;;18.94;50.97;102256.50;6122807;28;20243;-58
2021/06/14 06:02:19;;;;;;;4.25;3.05;;;;;;;19.28;49.25;102253.13;6123429;28;20231;-56
2021/06/14 06:05:39;;;;;;;4.75;3.53;;;;;;;19.27;50.39;102248.75;6129608;28;20230;-57
2021/06/14 06:09:00;;;;;;;6.15;4.63;;;;;;;19.20;49.23;102252.44;6133087;28;20231;-57
2021/06/14 06:12:21;;;;;;;7.03;3.55;;;;;;;19.80;47.68;102237.84;6134467;28;20259;-56
2021/06/14 06:15:44;;;;;;;5.97;4.10;;;;;;;19.79;47.44;102234.31;6136086;28;20231;-57
2021/06/14 06:19:05;;;;;;;9.05;5.03;;;;;;;19.62;47.76;102247.06;6136317;28;20235;-58
2021/06/14 06:22:26;;;;;;;7.63;4.88;;;;;;;19.46;47.77;102251.81;6137531;28;20272;-57
2021/06/14 06:25:47;;;;;;;9.43;3.88;;;;;;;18.69;49.11;102248.19;6137769;28;20235;-59
2021/06/14 06:29:08;;;;;;;6.13;3.05;;;;;;;18.98;50.00;102242.34;6137751;28;20239;-55
2021/06/14 06:32:30;;;;;;;10.55;3.60;;;;;;;18.76;49.36;102231.31;6138403;28;20298;-54
2021/06/14 06:35:51;;;;;;;8.95;2.97;;;;;;;18.98;48.90;102229.13;6139174;28;20298;-55
2021/06/14 06:39:12;;;;;;;7.85;4.25;;;;;;;19.55;47.11;102211.09;6139537;28;20227;-56
2021/06/14 06:42:33;;;;;;;4.85;3.53;;;;;;;19.72;46.66;102210.72;6137900;28;20230;-57
2021/06/14 06:45:54;;;;;;;6.10;3.55;;;;;;;19.26;48.28;102213.53;6135921;28;20231;-58
2021/06/14 06:49:16;;;;;;;8.32;3.40;;;;;;;19.12;47.54;102222.69;6134703;28;20876;-54
2021/06/14 06:52:39;;;;;;;7.05;3.75;;;;;;;19.57;47.32;102204.88;6139131;28;20604;-58
2021/06/14 06:56:00;;;;;;;7.30;3.72;;;;;;;19.89;46.76;102205.00;6137023;28;20367;-58
2021/06/14 06:59:22;;;;;;;7.10;4.25;;;;;;;19.42;48.03;102215.81;6137738;28;20308;-56
2021/06/14 07:02:43;;;;;;;6.28;4.30;;;;;;;19.13;48.41;102209.44;6136470;28;20784;-57
2021/06/14 07:06:05;;;;;;;8.15;3.33;;;;;;;19.54;47.97;102194.41;6140503;28;20560;-54
2021/06/14 07:09:26;;;;;;;9.60;4.20;;;;;;;19.51;47.20;102188.31;6134268;28;20227;-57
2021/06/14 07:12:46;;;;;;;6.88;4.25;;;;;;;19.41;48.57;102177.97;6135572;28;20231;-58
2021/06/14 07:16:07;;;;;;;4.65;3.25;;;;;;;20.46;46.31;102173.44;6131774;28;20239;-55
2021/06/14 07:19:28;;;;;;;5.18;3.38;;;;;;;20.19;45.59;102176.88;6133236;28;20418;-56
2021/06/14 07:22:50;;;;;;;3.95;3.10;;;;;;;20.38;46.61;102166.63;6138255;28;20255;-58
2021/06/14 07:26:12;;;;;;;6.97;4.13;;;;;;;20.02;46.92;102179.97;6135960;28;20234;-58
2021/06/14 07:29:33;;;;;;;6.18;3.63;;;;;;;20.04;47.06;102172.84;6134538;28;20243;-57
2021/06/14 07:32:54;;;;;;;6.88;3.88;;;;;;;20.69;45.30;102176.34;6132589;28;20235;-58
2021/06/14 07:36:15;;;;;;;6.50;4.00;;;;;;;21.08;44.19;102157.50;6129654;28;20266;-57
2021/06/14 07:39:38;;;;;;;5.85;4.05;;;;;;;21.26;43.38;102154.25;6135903;28;20242;-57
2021/06/14 07:42:59;;;;;;;5.30;3.58;;;;;;;20.91;43.55;102166.81;6136126;28;20262;-59
2021/06/14 07:46:20;;;;;;;5.55;4.35;;;;;;;20.29;43.78;102154.53;6134526;28;20775;-57
2021/06/14 07:49:42;;;;;;;6.93;4.20;;;;;;;20.51;44.29;102144.22;6136477;28;20231;-57
2021/06/14 07:53:04;;;;;;;4.65;4.07;;;;;;;20.75;42.84;102145.25;6126617;28;20228;-58
2021/06/14 07:56:27;;;;;;;6.50;5.03;;;;;;;20.44;43.13;102135.56;6135046;28;20321;-57
2021/06/14 07:59:47;;;;;;;9.77;4.57;;;;;;;20.64;43.28;102131.47;6122517;28;20330;-54
2021/06/14 08:03:08;;;;;;;6.57;4.25;;;;;;;21.49;41.43;102126.16;6135528;28;20242;-56
2021/06/14 08:06:29;;;;;;;7.45;4.95;;;;;;;21.13;42.06;102118.47;6130955;28;20223;-56
2021/06/14 08:09:55;;;;;;;8.90;4.93;;;;;;;21.00;42.30;102108.28;6131309;28;20243;-58
2021/06/14 08:13:18;;;;;;;7.78;5.15;;;;;;;20.93;42.09;102103.25;6140336;28;20866;-58
2021/06/14 08:16:42;;;;;;;8.85;5.55;;;;;;;21.44;41.96;102094.50;6133166;28;20239;-58
2021/06/14 08:20:07;;;;;;;6.75;5.20;;;;;;;;;;6123073;28;20527;-54
2021/06/14 08:27:06;;;;;;;5.93;3.70;;;;;;;21.83;41.00;102086.09;6116817;28;20235;-57
2021/06/14 08:30:29;;;;;;;7.82;3.55;;;;;;;21.58;40.49;102068.41;6132402;28;20559;-59
2021/06/14 08:33:50;;;;;;;9.15;5.00;;;;;;;21.60;40.72;102071.84;6136345;28;20558;-58
2021/06/14 08:37:11;;;;;;;6.63;4.30;;;;;;;21.95;40.73;102071.50;6132296;28;20238;-58
2021/06/14 08:40:35;;;;;;;5.85;4.68;;;;;;;22.26;40.00;102054.47;6130733;28;20239;-60
2021/06/14 08:43:58;;;;;;;6.43;4.15;;;;;;;22.69;39.44;102036.84;6129247;28;20223;-59
2021/06/14 08:47:23;;;;;;;7.68;4.80;;;;;;;22.69;38.95;102036.84;6133567;28;20512;-57
2021/06/14 08:50:45;;;;;;;5.63;4.00;;;;;;;22.67;38.76;102028.91;6123720;28;20259;-56
2021/06/14 08:54:07;;;;;;;6.35;3.67;;;;;;;21.75;39.36;102038.63;6131238;28;20235;-58
2021/06/14 08:57:28;;;;;;;8.93;4.57;;;;;;;21.89;39.54;102035.47;6131275;28;20235;-59
2021/06/14 09:00:49;;;;;;;7.53;4.72;;;;;;;22.52;39.21;102024.22;6133312;28;20258;-59
2021/06/14 09:04:11;;;;;;;9.13;4.60;;;;;;;22.89;38.27;102020.91;6134987;28;20256;-58
2021/06/14 09:11:11;;;;;;;8.30;3.58;;;;;;;22.21;38.34;102026.25;6208798;23;20260;-62
2021/06/14 09:14:37;;;;;;;11.98;4.15;;;;;;;22.36;38.63;102016.03;6230816;28;20236;-63
2021/06/14 09:17:58;;;;;;;8.80;3.85;;;;;;;22.38;38.23;102006.22;6215364;28;20328;-62
2021/06/14 09:21:20;;;;;;;5.72;3.85;;;;;;;22.71;37.96;102006.63;6209233;28;20236;-60
2021/06/14 09:24:53;;;;;;;6.65;3.75;;;;;;;22.57;38.04;102007.19;6212950;28;20233;-61
2021/06/14 09:28:14;;;;;;;8.95;6.03;;;;;;;23.25;37.13;101992.91;6192861;28;20229;-58
2021/06/14 09:31:41;;;;;;;8.43;4.32;;;;;;;23.37;37.63;101985.22;6217118;28;20255;-60
2021/06/14 09:35:02;;;;;;;7.03;4.45;;;;;;;23.20;37.65;101982.47;6203075;28;20228;-60
2021/06/14 09:38:24;;;;;;;8.13;3.75;;;;;;;23.32;37.19;101981.94;6216751;28;20264;-59
2021/06/14 09:41:48;;;;;;;7.90;5.07;;;;;;;23.41;37.53;101983.31;6221453;28;20331;-61
2021/06/14 09:45:09;;;;;;;5.97;3.80;;;;;;;24.07;37.23;101985.63;6223729;28;20777;-60
2021/06/14 09:48:34;;;;;;;8.77;5.25;;;;;;;23.10;38.07;101987.31;6224455;28;20233;-60
2021/06/14 09:51:56;;;;;;;6.90;4.00;;;;;;;23.54;37.83;101975.66;6223283;28;20557;-60
2021/06/14 09:55:18;;;;;;;7.40;4.78;;;;;;;24.02;37.39;101968.13;6228437;28;20228;-60
2021/06/14 09:58:41;;;;;;;10.82;4.75;;;;;;;23.84;37.05;101967.22;6215714;28;20323;-60
2021/06/14 10:02:09;;;;;;;6.45;3.95;;;;;;;23.65;36.58;101964.50;6210412;28;20515;-59
2021/06/14 10:05:30;;;;;;;7.57;4.75;;;;;;;23.31;37.39;101961.59;6226032;28;20231;-60
2021/06/14 10:08:51;;;;;;;6.63;4.05;;;;;;;23.21;37.14;101965.59;6223223;28;20240;-60
2021/06/14 10:12:25;;;;;;;8.32;4.85;;;;;;;23.39;36.98;101954.13;6214865;28;20241;-61
2021/06/14 10:15:47;;;;;;;4.53;3.97;;;;;;;23.87;36.47;101953.78;6218058;28;20232;-61
2021/06/14 10:19:09;;;;;;;5.43;3.85;;;;;;;24.08;36.36;101947.44;6229763;28;20240;-60
2021/06/14 10:22:31;;;;;;;6.47;3.97;;;;;;;24.15;35.95;101932.03;6220090;28;20360;-62
2021/06/14 10:25:52;;;;;;;5.80;3.58;;;;;;;23.99;35.85;101947.88;6234158;28;21085;-62
2021/06/14 10:29:17;;;;;;;10.02;3.30;;;;;;;24.37;35.13;101943.34;6225416;28;20229;-62
2021/06/14 10:32:41;;;;;;;7.25;4.20;;;;;;;24.22;35.79;101943.25;6228949;28;20232;-61
2021/06/14 10:36:02;;;;;;;5.85;3.75;;;;;;;25.04;34.70;101948.03;6225880;28;20236;-61
2021/06/14 10:39:26;;;;;;;3.83;3.30;;;;;;;25.03;34.12;101947.16;6231055;28;20675;-61
2021/06/14 10:42:47;;;;;;;9.57;3.88;;;;;;;25.27;34.24;101945.03;6223067;28;20669;-62
2021/06/14 10:46:12;;;;;;;4.53;3.83;;;;;;;25.69;33.38;101949.00;6224145;28;20327;-63
2021/06/14 10:49:33;;;;;;;6.90;3.22;;;;;;;25.69;32.68;101941.00;6219824;28;20225;-61
2021/06/14 10:52:55;;;;;;;5.28;3.20;;;;;;;25.08;33.78;101946.91;6220818;28;20236;-62
2021/06/14 10:56:17;;;;;;;6.00;3.65;;;;;;;25.72;33.11;101945.28;6222156;28;20486;-62
2021/06/14 10:59:39;;;;;;;4.68;2.80;;;;;;;25.85;32.96;101940.13;6213382;28;20323;-62
2021/06/14 11:03:04;;;;;;;3.85;3.30;;;;;;;24.83;33.71;101932.19;6218668;28;20232;-64
2021/06/14 11:06:26;;;;;;;6.03;3.30;;;;;;;25.66;33.00;101929.63;6222936;28;20547;-63
2021/06/14 11:09:47;;;;;;;6.25;4.32;;;;;;;24.98;33.56;101925.22;6218395;28;20224;-65
2021/06/14 11:13:10;;;;;;;6.22;4.00;;;;;;;26.01;32.58;101930.34;6217785;28;20895;-64
2021/06/14 11:16:39;;;;;;;7.63;3.95;;;;;;;26.12;32.31;101941.28;6222351;28;20233;-65
2021/06/14 11:20:09;;;;;;;4.35;3.95;;;;;;;25.90;33.08;101922.03;6222072;28;20491;-64
2021/06/14 11:23:30;;;;;;;5.10;3.42;;;;;;;25.96;32.86;101921.75;6227652;28;20569;-65
2021/06/14 11:26:57;;;;;;;6.30;3.83;;;;;;;25.78;32.77;101923.59;6217056;28;20229;-64
2021/06/14 11:30:23;;;;;;;4.55;3.33;;;;;;;25.64;32.85;101919.03;6221283;28;20236;-63
2021/06/14 11:33:45;;;;;;;4.57;3.30;;;;;;;26.28;32.46;101900.34;6220221;28;20568;-62
2021/06/14 11:37:08;;;;;;;7.18;3.22;;;;;;;26.27;32.54;101893.31;6224133;28;20229;-63
2021/06/14 11:40:31;;;;;;;3.58;2.75;;;;;;;26.17;32.34;101898.28;6236397;28;20233;-64
2021/06/14 11:44:28;;;;;;;5.95;3.78;;;;;;;25.38;33.61;101908.94;6226086;28;20229;-59
2021/06/14 11:47:49;;;;;;;7.25;4.00;;;;;;;26.08;32.62;101894.34;6210410;28;20315;-60
2021/06/14 11:51:14;;;;;;;5.85;3.53;;;;;;;25.82;32.88;101882.44;6223463;28;20236;-60
2021/06/14 11:54:36;;;;;;;5.32;3.22;;;;;;;25.59;33.11;101873.09;6223944;28;20265;-59
2021/06/14 11:57:59;;;;;;;5.03;3.17;;;;;;;26.44;32.36;101866.44;6224482;28;20369;-59
2021/06/14 12:01:24;;;;;;;5.00;3.42;;;;;;;25.93;32.91;101881.88;6214511;28;20225;-64
2021/06/14 12:04:45;;;;;;;5.03;3.90;;;;;;;26.41;32.39;101871.97;6224998;28;20324;-63
2021/06/14 12:08:10;;;;;;;4.20;2.75;;;;;;;26.39;32.25;101889.06;6222032;28;20228;-63
2021/06/14 12:11:32;;;;;;;4.97;3.80;;;;;;;26.48;31.82;101881.34;6219576;28;20236;-64
2021/06/14 12:14:54;;;;;;;6.55;3.83;;;;;;;26.34;32.47;101883.97;6223964;28;20245;-65
2021/06/14 12:18:15;;;;;;;6.25;3.78;;;;;;;26.38;32.08;101888.16;6216684;28;20324;-66
2021/06/14 12:21:37;;;;;;;7.18;3.58;;;;;;;26.75;32.04;101885.16;6222667;28;20253;-65
2021/06/14 12:25:03;;;;;;;5.32;3.42;;;;;;;27.10;31.30;101881.19;6227965;28;20232;-64
2021/06/14 12:28:26;;;;;;;2.53;2.33;;;;;;;27.02;31.46;101866.56;6218718;28;20229;-63
2021/06/14 12:31:47;;;;;;;6.35;3.10;;;;;;;27.22;31.32;101858.16;6215162;28;20330;-65
2021/06/14 12:35:10;;;;;;;10.07;3.40;;;;;;;27.58;30.87;101856.78;6220552;28;20225;-65
2021/06/14 12:38:31;;;;;;;4.90;3.22;;;;;;;27.84;30.16;101851.53;6223549;28;20240;-64
2021/06/14 12:41:52;;;;;;;3.63;3.33;;;;;;;26.77;31.60;101849.34;6220678;28;20236;-65
2021/06/14 12:45:17;;;;;;;4.30;3.13;;;;;;;27.36;31.26;101853.78;6221027;28;20228;-60
2021/06/14 12:48:38;;;;;;;5.38;3.83;;;;;;;27.97;30.56;101847.13;6220859;28;20244;-60
2021/06/14 12:52:00;;;;;;;4.88;3.10;;;;;;;28.12;30.42;101849.75;6225986;28;20247;-61
2021/06/14 12:55:24;;;;;;;5.25;3.45;;;;;;;26.94;30.59;101842.13;6223773;28;20512;-60
2021/06/14 12:58:46;;;;;;;4.07;2.92;;;;;;;27.87;30.10;101828.09;6224373;28;20502;-62
2021/06/14 13:02:12;;;;;;;4.90;3.30;;;;;;;28.41;29.77;101832.56;6213330;28;20237;-60
2021/06/14 13:05:35;;;;;;;4.22;3.33;;;;;;;28.55;30.16;101822.75;6223048;28;20232;-61
2021/06/14 13:09:00;;;;;;;6.18;3.33;;;;;;;28.81;29.10;101828.97;6224887;28;20228;-60
2021/06/14 13:12:29;;;;;;;5.82;3.05;;;;;;;28.92;28.79;101823.69;6218465;28;20238;-60
2021/06/14 13:15:52;;;;;;;3.63;2.65;;;;;;;28.64;28.74;101825.63;6222081;28;20235;-59
2021/06/14 13:19:14;;;;;;;3.78;2.83;;;;;;;28.69;28.75;101816.41;6216598;28;20249;-59
2021/06/14 13:22:36;;;;;;;5.05;2.63;;;;;;;30.01;27.42;101813.06;6225565;28;20229;-60
2021/06/14 13:25:59;;;;;;;4.35;3.17;;;;;;;28.08;29.29;101823.19;6225578;28;20229;-60
2021/06/14 13:29:25;;;;;;;5.28;2.88;;;;;;;29.86;26.63;101818.72;6219017;28;20551;-60
2021/06/14 13:32:56;;;;;;;5.38;3.03;;;;;;;31.28;24.04;101809.44;6218590;28;20228;-63
2021/06/14 13:36:21;;;;;;;6.05;3.60;;;;;;;30.83;24.15;101803.25;6218209;28;20232;-63
2021/06/14 13:39:43;;;;;;;6.13;2.85;;;;;;;30.77;25.09;101815.34;6224225;28;20237;-63
2021/06/14 13:43:03;;;;;;;4.93;2.88;;;;;;;32.30;23.73;101806.38;6221699;28;20233;-63
2021/06/14 13:46:25;;;;;;;5.10;2.53;;;;;;;32.58;23.76;101804.91;6223732;28;20739;-64
2021/06/14 13:49:46;;;;;;;4.00;2.67;;;;;;;31.11;25.06;101804.59;6222162;28;20248;-60
2021/06/14 13:53:13;;;;;;;4.63;3.10;;;;;;;29.69;26.87;101796.66;6207447;28;20228;-60
2021/06/14 13:56:45;;;;;;;4.40;3.45;;;;;;;27.52;29.73;101798.34;6218032;28;20236;-59
2021/06/14 14:00:10;;;;;;;4.53;3.28;;;;;;;27.89;29.62;101791.41;6216082;28;20241;-60
2021/06/14 14:03:40;;;;;;;4.03;3.38;;;;;;;29.06;28.83;101783.34;6229330;28;20951;-60
2021/06/14 14:07:01;;;;;;;2.92;2.72;;;;;;;30.19;27.33;101773.19;6220985;28;20233;-61
2021/06/14 14:10:24;;;;;;;3.20;2.90;;;;;;;30.03;26.86;101773.53;6224208;28;20313;-59
2021/06/14 14:13:55;;;;;;;3.75;3.10;;;;;;;29.25;27.69;101765.94;6220184;28;20221;-59
2021/06/14 14:17:16;;;;;;;5.35;3.42;;;;;;;29.58;27.83;101759.88;6219659;28;20228;-53
2021/06/14 14:20:39;;;;;;;5.20;2.97;;;;;;;29.84;27.09;101757.13;6213302;28;20240;-54
2021/06/14 14:24:03;;;;;;;3.50;3.20;;;;;;;30.32;26.56;101757.03;6218019;28;20233;-52
2021/06/14 14:27:26;;;;;;;5.90;3.03;;;;;;;30.62;26.30;101752.88;6222713;28;20508;-54
2021/06/14 14:30:50;;;;;;;6.65;3.38;;;;;;;29.30;27.69;101753.06;6217827;28;20236;-55
2021/06/14 14:34:11;;;;;;;7.38;3.30;;;;;;;29.64;27.24;101751.41;6218398;28;20282;-55
2021/06/14 14:37:49;;;;;;;4.38;3.55;;;;;;;30.02;26.50;101739.59;6227682;28;20610;-51
2021/06/14 14:41:13;;;;;;;3.42;3.00;;;;;;;29.99;26.92;101742.53;6227584;28;20233;-51
2021/06/14 14:44:39;;;;;;;4.28;2.88;;;;;;;28.97;28.65;101734.91;6222872;28;20888;-52
2021/06/14 14:48:03;;;;;;;4.82;2.88;;;;;;;28.70;28.63;101735.91;6218288;28;20225;-53
2021/06/14 14:51:24;;;;;;;7.28;3.33;;;;;;;28.32;29.05;101723.38;6216173;28;20935;-54
2021/06/14 14:54:51;;;;;;;3.90;3.10;;;;;;;28.18;29.41;101731.53;6216152;28;20915;-55
2021/06/14 14:58:12;;;;;;;4.88;2.63;;;;;;;29.32;27.39;101723.44;6222645;28;20245;-55
2021/06/14 15:01:37;;;;;;;4.28;2.75;;;;;;;29.22;27.13;101721.44;6223834;28;20485;-54
2021/06/14 15:04:59;;;;;;;5.30;3.15;;;;;;;28.88;28.17;101719.47;6219876;28;20233;-55
2021/06/14 15:08:20;;;;;;;4.97;3.42;;;;;;;28.14;28.85;101725.50;6221922;28;20232;-52
2021/06/14 15:11:41;;;;;;;3.92;2.72;;;;;;;27.88;29.44;101708.59;6232650;28;20229;-54
2021/06/14 15:15:03;;;;;;;3.33;2.97;;;;;;;29.15;27.94;101700.53;6224587;28;20240;-55
2021/06/14 15:18:25;;;;;;;6.43;3.08;;;;;;;29.33;27.83;101698.31;6227855;28;20236;-56
2021/06/14 15:21:47;;;;;;;5.93;3.17;;;;;;;29.41;26.81;101706.63;6224497;28;20233;-54
2021/06/14 15:25:11;;;;;;;2.95;2.45;;;;;;;30.38;26.36;101697.44;6220979;28;20324;-56
2021/06/14 15:28:32;;;;;;;8.45;3.28;;;;;;;30.38;26.52;101692.06;6220910;28;20224;-56
2021/06/14 15:31:54;;;;;;;5.35;3.30;;;;;;;29.35;27.40;101680.28;6217190;28;20237;-53
2021/06/14 15:35:19;;;;;;;5.32;3.53;;;;;;;28.69;28.55;101683.28;6221191;28;20645;-54
2021/06/14 15:38:41;;;;;;;8.95;4.25;;;;;;;30.16;27.22;101681.25;6224523;28;20606;-55
2021/06/14 15:42:02;;;;;;;5.30;3.17;;;;;;;29.99;26.43;101669.16;6230164;28;20327;-52
2021/06/14 15:45:24;;;;;;;4.10;3.10;;;;;;;30.01;26.39;101668.06;6225093;28;20219;-56
2021/06/14 15:48:45;;;;;;;3.47;3.17;;;;;;;29.71;27.06;101670.41;6219747;28;20228;-54
2021/06/14 15:52:07;;;;;;;5.53;3.10;;;;;;;29.39;27.43;101668.34;6228756;28;20236;-53